sensor_id;sensor_type;location;lat;lon;timestamp;pressure;altitude;pressure_sealevel;temperature;humidity
3524;BME280;1776;53.330;11.498;2023-02-28T00:00:25;23652.13;;;-147.39;61.64
3524;BME280;1776;53.330;11.498;2023-02-28T00:02:50;23623.66;;;-147.39;61.41
3524;BME280;1776;53.330;11.498;2023-02-28T00:05:18;23639.91;;;-147.39;61.61
3524;BME280;1776;53.330;11.498;2023-02-28T00:07:44;23654.16;;;-147.39;61.25
3524;BME280;1776;53.330;11.498;2023-02-28T00:10:12;23627.72;;;-147.39;61.21
3524;BME280;1776;53.330;11.498;2023-02-28T00:12:38;23631.78;;;-147.39;61.40
3524;BME280;1776;53.330;11.498;2023-02-28T00:15:08;23700.91;;;-147.39;61.56
3524;BME280;1776;53.330;11.498;2023-02-28T00:17:34;23629.75;;;-147.39;61.44
3524;BME280;1776;53.330;11.498;2023-02-28T00:19:59;23611.44;;;-147.39;61.54
3524;BME280;1776;53.330;11.498;2023-02-28T00:22:41;23593.16;;;-147.39;61.51
3524;BME280;1776;53.330;11.498;2023-02-28T00:25:08;23609.41;;;-147.39;61.74
3524;BME280;1776;53.330;11.498;2023-02-28T00:27:36;23625.69;;;-147.39;61.63
3524;BME280;1776;53.330;11.498;2023-02-28T00:30:02;23625.69;;;-147.39;61.55
3524;BME280;1776;53.330;11.498;2023-02-28T00:32:27;23611.44;;;-147.39;61.68
3524;BME280;1776;53.330;11.498;2023-02-28T00:34:53;23593.16;;;-147.39;61.99
3524;BME280;1776;53.330;11.498;2023-02-28T00:37:18;23641.94;;;-147.39;62.12
3524;BME280;1776;53.330;11.498;2023-02-28T00:39:43;23631.78;;;-147.39;62.31
3524;BME280;1776;53.330;11.498;2023-02-28T00:42:08;23570.78;;;-147.39;62.46
3524;BME280;1776;53.330;11.498;2023-02-28T00:44:34;23568.75;;;-147.39;62.35
3524;BME280;1776;53.330;11.498;2023-02-28T00:46:59;23605.34;;;-147.39;62.35
3524;BME280;1776;53.330;11.498;2023-02-28T00:49:27;23713.09;;;-147.39;62.22
3524;BME280;1776;53.330;11.498;2023-02-28T00:51:54;23723.28;;;-147.39;62.48
3524;BME280;1776;53.330;11.498;2023-02-28T00:54:21;23568.75;;;-147.39;62.63
3524;BME280;1776;53.330;11.498;2023-02-28T00:56:47;23595.19;;;-147.39;62.15
3524;BME280;1776;53.330;11.498;2023-02-28T00:59:13;23560.63;;;-147.39;62.69
3524;BME280;1776;53.330;11.498;2023-02-28T01:01:39;23562.66;;;-147.39;62.27
3524;BME280;1776;53.330;11.498;2023-02-28T01:04:04;23587.06;;;-147.39;62.35
3524;BME280;1776;53.330;11.498;2023-02-28T01:06:30;23597.22;;;-147.39;62.51
3524;BME280;1776;53.330;11.498;2023-02-28T01:08:56;23595.19;;;-147.39;62.38
3524;BME280;1776;53.330;11.498;2023-02-28T01:11:21;23599.25;;;-147.39;62.44
3524;BME280;1776;53.330;11.498;2023-02-28T01:13:47;23572.81;;;-147.39;62.65
3524;BME280;1776;53.330;11.498;2023-02-28T01:16:12;23589.09;;;-147.39;62.46
3524;BME280;1776;53.330;11.498;2023-02-28T01:18:38;23572.81;;;-147.39;62.33
3524;BME280;1776;53.330;11.498;2023-02-28T01:21:08;23562.66;;;-147.39;62.44
3524;BME280;1776;53.330;11.498;2023-02-28T01:23:34;23570.78;;;-147.39;62.55
3524;BME280;1776;53.330;11.498;2023-02-28T01:26:12;23544.38;;;-147.39;62.33
3524;BME280;1776;53.330;11.498;2023-02-28T01:28:38;23597.22;;;-147.39;61.95
3524;BME280;1776;53.330;11.498;2023-02-28T01:31:04;23570.78;;;-147.39;62.22
3524;BME280;1776;53.330;11.498;2023-02-28T01:33:29;23550.47;;;-147.39;61.92
3524;BME280;1776;53.330;11.498;2023-02-28T01:35:58;23564.69;;;-147.39;62.33
3524;BME280;1776;53.330;11.498;2023-02-28T01:38:24;23605.34;;;-147.39;61.93
3524;BME280;1776;53.330;11.498;2023-02-28T01:40:51;23576.88;;;-147.39;61.61
3524;BME280;1776;53.330;11.498;2023-02-28T01:46:08;23580.97;;;-147.39;61.64
3524;BME280;1776;53.330;11.498;2023-02-28T01:48:43;23666.34;;;-147.39;61.83
3524;BME280;1776;53.330;11.498;2023-02-28T01:51:14;23646.00;;;-147.39;61.65
3524;BME280;1776;53.330;11.498;2023-02-28T01:53:49;23578.94;;;-147.39;61.76
3524;BME280;1776;53.330;11.498;2023-02-28T01:56:20;23599.25;;;-147.39;61.99
3524;BME280;1776;53.330;11.498;2023-02-28T01:58:47;23562.66;;;-147.39;62.08
3524;BME280;1776;53.330;11.498;2023-02-28T02:01:12;23548.44;;;-147.39;61.93
3524;BME280;1776;53.330;11.498;2023-02-28T02:03:49;23570.78;;;-147.39;62.20
3524;BME280;1776;53.330;11.498;2023-02-28T02:06:21;23560.63;;;-147.39;62.16
3524;BME280;1776;53.330;11.498;2023-02-28T02:08:47;23603.31;;;-147.39;62.23
3524;BME280;1776;53.330;11.498;2023-02-28T02:11:13;23591.13;;;-147.39;62.09
3524;BME280;1776;53.330;11.498;2023-02-28T02:13:58;23524.03;;;-147.39;62.42
3524;BME280;1776;53.330;11.498;2023-02-28T02:25:21;23552.50;;;-147.39;62.79
3524;BME280;1776;53.330;11.498;2023-02-28T02:36:22;23570.78;;;-147.39;62.84
3524;BME280;1776;53.330;11.498;2023-02-28T02:39:16;23544.38;;;-147.39;63.26
3524;BME280;1776;53.330;11.498;2023-02-28T02:41:53;23568.75;;;-147.39;63.29
3524;BME280;1776;53.330;11.498;2023-02-28T02:44:48;23528.09;;;-147.39;62.90
3524;BME280;1776;53.330;11.498;2023-02-28T02:47:20;23479.31;;;-147.39;62.85
3524;BME280;1776;53.330;11.498;2023-02-28T02:49:52;23493.53;;;-147.39;63.11
3524;BME280;1776;53.330;11.498;2023-02-28T02:52:23;23499.63;;;-147.39;62.78
3524;BME280;1776;53.330;11.498;2023-02-28T02:54:52;23515.91;;;-147.39;63.10
3524;BME280;1776;53.330;11.498;2023-02-28T02:57:31;23511.84;;;-147.39;62.97
3524;BME280;1776;53.330;11.498;2023-02-28T02:59:59;23469.16;;;-147.39;63.33
3524;BME280;1776;53.330;11.498;2023-02-28T03:02:29;23519.97;;;-147.39;63.32
3524;BME280;1776;53.330;11.498;2023-02-28T03:05:01;23509.81;;;-147.39;63.32
3524;BME280;1776;53.330;11.498;2023-02-28T03:07:28;23515.91;;;-147.39;63.35
3524;BME280;1776;53.330;11.498;2023-02-28T03:09:55;23497.59;;;-147.39;63.14
3524;BME280;1776;53.330;11.498;2023-02-28T03:12:23;23595.19;;;-147.39;63.58
3524;BME280;1776;53.330;11.498;2023-02-28T03:15:00;23237.41;;;-147.39;63.90
3524;BME280;1776;53.330;11.498;2023-02-28T03:17:47;23515.91;;;-147.39;63.79
3524;BME280;1776;53.330;11.498;2023-02-28T03:22:51;23534.19;;;-147.39;63.73
3524;BME280;1776;53.330;11.498;2023-02-28T03:25:21;23489.47;;;-147.39;63.73
3524;BME280;1776;53.330;11.498;2023-02-28T03:30:36;23532.16;;;-147.39;63.47
3524;BME280;1776;53.330;11.498;2023-02-28T03:33:12;23467.13;;;-147.39;63.81
3524;BME280;1776;53.330;11.498;2023-02-28T03:35:43;23483.38;;;-147.39;63.98
3524;BME280;1776;53.330;11.498;2023-02-28T03:38:19;23507.78;;;-147.39;64.14
3524;BME280;1776;53.330;11.498;2023-02-28T03:40:51;23426.44;;;-147.39;63.83
3524;BME280;1776;53.330;11.498;2023-02-28T03:43:22;23503.72;;;-147.39;63.80
3524;BME280;1776;53.330;11.498;2023-02-28T03:45:51;23481.34;;;-147.39;64.11
3524;BME280;1776;53.330;11.498;2023-02-28T03:48:25;23475.25;;;-147.39;64.07
3524;BME280;1776;53.330;11.498;2023-02-28T03:50:55;23454.91;;;-147.39;63.79
3524;BME280;1776;53.330;11.498;2023-02-28T03:53:32;23578.94;;;-147.39;63.77
3524;BME280;1776;53.330;11.498;2023-02-28T03:56:16;23489.47;;;-147.39;63.81
3524;BME280;1776;53.330;11.498;2023-02-28T04:01:38;23485.41;;;-147.39;63.82
3524;BME280;1776;53.330;11.498;2023-02-28T04:04:07;23503.72;;;-147.39;63.75
3524;BME280;1776;53.330;11.498;2023-02-28T04:06:33;23495.56;;;-147.39;63.60
3524;BME280;1776;53.330;11.498;2023-02-28T04:08:59;23456.94;;;-147.39;63.65
3524;BME280;1776;53.330;11.498;2023-02-28T04:13:59;23452.88;;;-147.39;63.84
3524;BME280;1776;53.330;11.498;2023-02-28T04:16:24;23507.78;;;-147.39;63.69
3524;BME280;1776;53.330;11.498;2023-02-28T04:18:50;23475.25;;;-147.39;63.71
3524;BME280;1776;53.330;11.498;2023-02-28T04:21:15;23524.03;;;-147.39;63.44
3524;BME280;1776;53.330;11.498;2023-02-28T04:23:40;23475.25;;;-147.39;63.79
3524;BME280;1776;53.330;11.498;2023-02-28T04:26:06;23481.34;;;-147.39;63.92
3524;BME280;1776;53.330;11.498;2023-02-28T04:28:32;23487.44;;;-147.39;63.64
3524;BME280;1776;53.330;11.498;2023-02-28T04:31:02;23522.00;;;-147.39;63.87
3524;BME280;1776;53.330;11.498;2023-02-28T04:33:28;23597.22;;;-147.39;63.47
3524;BME280;1776;53.330;11.498;2023-02-28T04:36:03;23495.56;;;-147.39;63.46
3524;BME280;1776;53.330;11.498;2023-02-28T04:38:31;23475.25;;;-147.39;63.41
3524;BME280;1776;53.330;11.498;2023-02-28T04:40:58;23648.03;;;-147.39;63.58
3524;BME280;1776;53.330;11.498;2023-02-28T04:43:24;23461.00;;;-147.39;63.74
3524;BME280;1776;53.330;11.498;2023-02-28T04:45:50;23483.38;;;-147.39;63.92
3524;BME280;1776;53.330;11.498;2023-02-28T04:48:15;23497.59;;;-147.39;63.67
3524;BME280;1776;53.330;11.498;2023-02-28T04:50:40;23542.34;;;-147.39;63.46
3524;BME280;1776;53.330;11.498;2023-02-28T04:53:06;23479.31;;;-147.39;63.01
3524;BME280;1776;53.330;11.498;2023-02-28T04:55:31;23505.75;;;-147.39;62.84
3524;BME280;1776;53.330;11.498;2023-02-28T04:57:56;23507.78;;;-147.39;63.25
3524;BME280;1776;53.330;11.498;2023-02-28T05:00:21;23481.34;;;-147.39;63.12
3524;BME280;1776;53.330;11.498;2023-02-28T05:02:47;23501.66;;;-147.39;62.95
3524;BME280;1776;53.330;11.498;2023-02-28T05:05:12;23499.63;;;-147.39;63.09
3524;BME280;1776;53.330;11.498;2023-02-28T05:10:15;23489.47;;;-147.39;62.44
3524;BME280;1776;53.330;11.498;2023-02-28T05:12:40;23491.50;;;-147.39;62.27
3524;BME280;1776;53.330;11.498;2023-02-28T05:15:06;23511.84;;;-147.39;62.47
3524;BME280;1776;53.330;11.498;2023-02-28T05:17:32;23515.91;;;-147.39;62.49
3524;BME280;1776;53.330;11.498;2023-02-28T05:19:57;23511.84;;;-147.39;62.59
3524;BME280;1776;53.330;11.498;2023-02-28T05:22:23;23953.00;;;-147.39;62.14
3524;BME280;1776;53.330;11.498;2023-02-28T05:24:48;23481.34;;;-147.39;62.74
3524;BME280;1776;53.330;11.498;2023-02-28T05:27:13;23517.94;;;-147.39;62.67
3524;BME280;1776;53.330;11.498;2023-02-28T05:29:39;23505.75;;;-147.39;62.35
3524;BME280;1776;53.330;11.498;2023-02-28T05:32:11;23485.41;;;-147.39;62.69
3524;BME280;1776;53.330;11.498;2023-02-28T05:34:37;23509.81;;;-147.39;62.54
3524;BME280;1776;53.330;11.498;2023-02-28T05:37:03;23465.06;;;-147.39;62.45
3524;BME280;1776;53.330;11.498;2023-02-28T05:39:28;23501.66;;;-147.39;62.74
3524;BME280;1776;53.330;11.498;2023-02-28T05:41:53;23507.78;;;-147.39;62.69
3524;BME280;1776;53.330;11.498;2023-02-28T05:44:18;23487.44;;;-147.39;62.73
3524;BME280;1776;53.330;11.498;2023-02-28T05:46:44;23473.22;;;-147.39;62.80
3524;BME280;1776;53.330;11.498;2023-02-28T05:49:09;23497.59;;;-147.39;62.63
3524;BME280;1776;53.330;11.498;2023-02-28T05:51:34;23475.25;;;-147.39;62.43
3524;BME280;1776;53.330;11.498;2023-02-28T05:54:02;23507.78;;;-147.39;62.97
3524;BME280;1776;53.330;11.498;2023-02-28T05:56:27;23528.09;;;-147.39;62.85
3524;BME280;1776;53.330;11.498;2023-02-28T05:58:53;23501.66;;;-147.39;63.11
3524;BME280;1776;53.330;11.498;2023-02-28T06:01:21;23475.25;;;-147.39;62.86
3524;BME280;1776;53.330;11.498;2023-02-28T06:03:47;23483.38;;;-147.39;63.08
3524;BME280;1776;53.330;11.498;2023-02-28T06:06:13;23499.63;;;-147.39;63.03
3524;BME280;1776;53.330;11.498;2023-02-28T06:08:38;23489.47;;;-147.39;63.21
3524;BME280;1776;53.330;11.498;2023-02-28T06:11:04;23469.16;;;-147.39;63.23
3524;BME280;1776;53.330;11.498;2023-02-28T06:13:29;23493.53;;;-147.39;63.31
3524;BME280;1776;53.330;11.498;2023-02-28T06:15:54;23759.88;;;-147.39;63.50
3524;BME280;1776;53.330;11.498;2023-02-28T06:18:20;23458.97;;;-147.39;63.56
3524;BME280;1776;53.330;11.498;2023-02-28T06:20:52;23456.94;;;-147.39;63.58
3524;BME280;1776;53.330;11.498;2023-02-28T06:23:19;23426.44;;;-147.39;63.65
3524;BME280;1776;53.330;11.498;2023-02-28T06:25:45;23487.44;;;-147.39;63.29
3524;BME280;1776;53.330;11.498;2023-02-28T06:28:10;23465.06;;;-147.39;63.28
3524;BME280;1776;53.330;11.498;2023-02-28T06:30:37;23454.91;;;-147.39;63.49
3524;BME280;1776;53.330;11.498;2023-02-28T06:33:02;23463.03;;;-147.39;63.33
3524;BME280;1776;53.330;11.498;2023-02-28T06:35:28;23442.72;;;-147.39;63.60
3524;BME280;1776;53.330;11.498;2023-02-28T06:37:53;23450.84;;;-147.39;63.65
3524;BME280;1776;53.330;11.498;2023-02-28T06:40:18;23467.13;;;-147.39;63.54
3524;BME280;1776;53.330;11.498;2023-02-28T06:42:44;23442.72;;;-147.39;63.87
3524;BME280;1776;53.330;11.498;2023-02-28T06:45:10;23469.16;;;-147.39;63.54
3524;BME280;1776;53.330;11.498;2023-02-28T06:47:37;23471.19;;;-147.39;63.23
3524;BME280;1776;53.330;11.498;2023-02-28T06:50:03;23465.06;;;-147.39;63.41
3524;BME280;1776;53.330;11.498;2023-02-28T06:52:29;23487.44;;;-147.39;62.80
3524;BME280;1776;53.330;11.498;2023-02-28T06:54:55;23517.94;;;-147.39;62.39
3524;BME280;1776;53.330;11.498;2023-02-28T06:57:29;23477.28;;;-147.39;61.82
3524;BME280;1776;53.330;11.498;2023-02-28T06:59:57;23495.56;;;-147.39;61.12
3524;BME280;1776;53.330;11.498;2023-02-28T07:02:22;23522.00;;;-147.39;61.21
3524;BME280;1776;53.330;11.498;2023-02-28T07:04:47;23489.47;;;-147.39;61.25
3524;BME280;1776;53.330;11.498;2023-02-28T07:07:12;23528.09;;;-147.39;61.35
3524;BME280;1776;53.330;11.498;2023-02-28T07:09:38;23517.94;;;-147.39;60.81
3524;BME280;1776;53.330;11.498;2023-02-28T07:12:03;23491.50;;;-147.39;61.12
3524;BME280;1776;53.330;11.498;2023-02-28T07:14:29;23528.09;;;-147.39;60.59
3524;BME280;1776;53.330;11.498;2023-02-28T07:16:54;23499.63;;;-147.39;60.61
3524;BME280;1776;53.330;11.498;2023-02-28T07:19:19;23564.69;;;-147.39;60.50
3524;BME280;1776;53.330;11.498;2023-02-28T07:21:45;23560.63;;;-147.39;60.44
3524;BME280;1776;53.330;11.498;2023-02-28T07:24:10;23550.47;;;-147.39;60.29
3524;BME280;1776;53.330;11.498;2023-02-28T07:26:35;23519.97;;;-147.39;60.09
3524;BME280;1776;53.330;11.498;2023-02-28T07:29:01;23554.53;;;-147.39;59.72
3524;BME280;1776;53.330;11.498;2023-02-28T07:31:27;23603.31;;;-147.39;59.79
3524;BME280;1776;53.330;11.498;2023-02-28T07:33:52;23558.59;;;-147.39;60.08
3524;BME280;1776;53.330;11.498;2023-02-28T07:36:19;23568.75;;;-147.39;59.95
3524;BME280;1776;53.330;11.498;2023-02-28T07:38:46;23560.63;;;-147.39;59.86
3524;BME280;1776;53.330;11.498;2023-02-28T07:41:14;23560.63;;;-147.39;59.88
3524;BME280;1776;53.330;11.498;2023-02-28T07:43:39;23524.03;;;-147.39;60.50
3524;BME280;1776;53.330;11.498;2023-02-28T07:46:09;23542.34;;;-147.39;60.16
3524;BME280;1776;53.330;11.498;2023-02-28T07:48:35;23546.41;;;-147.39;60.22
3524;BME280;1776;53.330;11.498;2023-02-28T07:51:01;23574.84;;;-147.39;60.23
3524;BME280;1776;53.330;11.498;2023-02-28T07:53:27;23572.81;;;-147.39;60.36
3524;BME280;1776;53.330;11.498;2023-02-28T07:56:00;23548.44;;;-147.39;60.70
3524;BME280;1776;53.330;11.498;2023-02-28T07:58:26;23605.34;;;-147.39;59.93
3524;BME280;1776;53.330;11.498;2023-02-28T08:00:52;23776.13;;;-147.39;56.00
3524;BME280;1776;53.330;11.498;2023-02-28T08:03:18;24095.34;;;-147.39;49.56
3524;BME280;1776;53.330;11.498;2023-02-28T08:05:44;24441.00;;;-147.39;44.66
3524;BME280;1776;53.330;11.498;2023-02-28T08:08:09;24835.53;;;-147.39;40.82
3524;BME280;1776;53.330;11.498;2023-02-28T08:10:34;25211.75;;;-147.39;37.50
3524;BME280;1776;53.330;11.498;2023-02-28T08:13:00;25602.28;;;-147.39;34.75
3524;BME280;1776;53.330;11.498;2023-02-28T08:15:26;25834.16;;;-147.39;32.57
3524;BME280;1776;53.330;11.498;2023-02-28T08:17:51;25950.13;;;-147.39;31.35
3524;BME280;1776;53.330;11.498;2023-02-28T08:20:16;26066.06;;;-147.39;30.63
3524;BME280;1776;53.330;11.498;2023-02-28T08:22:42;26147.44;;;-147.39;30.05
3524;BME280;1776;53.330;11.498;2023-02-28T08:25:08;26330.53;;;-147.39;29.53
3524;BME280;1776;53.330;11.498;2023-02-28T08:27:34;26479.06;;;-147.39;29.23
3524;BME280;1776;53.330;11.498;2023-02-28T08:29:59;26523.81;;;-147.39;29.00
3524;BME280;1776;53.330;11.498;2023-02-28T08:32:24;26631.66;;;-147.39;28.90
3524;BME280;1776;53.330;11.498;2023-02-28T08:34:49;26704.91;;;-147.39;28.33
3524;BME280;1776;53.330;11.498;2023-02-28T08:37:15;26798.50;;;-147.39;27.92
3524;BME280;1776;53.330;11.498;2023-02-28T08:39:40;26951.09;;;-147.39;27.41
3524;BME280;1776;53.330;11.498;2023-02-28T08:42:05;26967.38;;;-147.39;27.94
3524;BME280;1776;53.330;11.498;2023-02-28T08:44:31;27034.53;;;-147.39;27.50
3524;BME280;1776;53.330;11.498;2023-02-28T08:46:56;27144.41;;;-147.39;27.61
3524;BME280;1776;53.330;11.498;2023-02-28T08:49:21;27091.50;;;-147.39;26.97
3524;BME280;1776;53.330;11.498;2023-02-28T08:51:47;27235.97;;;-147.39;26.62
3524;BME280;1776;53.330;11.498;2023-02-28T08:54:12;27368.25;;;-147.39;26.21
3524;BME280;1776;53.330;11.498;2023-02-28T08:56:38;27490.34;;;-147.39;26.46
3524;BME280;1776;53.330;11.498;2023-02-28T08:59:03;27571.75;;;-147.39;26.04
3524;BME280;1776;53.330;11.498;2023-02-28T09:01:29;27679.59;;;-147.39;25.64
3524;BME280;1776;53.330;11.498;2023-02-28T09:03:55;27815.97;;;-147.39;25.82
3524;BME280;1776;53.330;11.498;2023-02-28T09:06:23;27844.44;;;-147.39;25.43
3524;BME280;1776;53.330;11.498;2023-02-28T09:08:49;28003.19;;;-147.39;25.15
3524;BME280;1776;53.330;11.498;2023-02-28T09:11:14;27728.44;;;-147.39;25.56
3524;BME280;1776;53.330;11.498;2023-02-28T09:13:40;27425.22;;;-147.39;25.88
3524;BME280;1776;53.330;11.498;2023-02-28T09:16:08;27620.59;;;-147.39;25.85
3524;BME280;1776;53.330;11.498;2023-02-28T09:18:35;27461.84;;;-147.39;26.95
3524;BME280;1776;53.330;11.498;2023-02-28T09:21:04;27417.06;;;-147.39;25.56
3524;BME280;1776;53.330;11.498;2023-02-28T09:23:29;27767.13;;;-147.39;25.52
3524;BME280;1776;53.330;11.498;2023-02-28T09:25:55;28021.53;;;-147.39;25.12
3524;BME280;1776;53.330;11.498;2023-02-28T09:28:20;27946.22;;;-147.39;24.18
3524;BME280;1776;53.330;11.498;2023-02-28T09:30:48;27934.00;;;-147.39;24.98
3524;BME280;1776;53.330;11.498;2023-02-28T09:33:15;28137.53;;;-147.39;25.01
3524;BME280;1776;53.330;11.498;2023-02-28T09:35:41;28056.13;;;-147.39;24.86
3524;BME280;1776;53.330;11.498;2023-02-28T09:38:08;28166.03;;;-147.39;24.56
3524;BME280;1776;53.330;11.498;2023-02-28T09:40:55;28090.72;;;-147.39;24.95
3524;BME280;1776;53.330;11.498;2023-02-28T09:43:23;28145.69;;;-147.39;24.58
3524;BME280;1776;53.330;11.498;2023-02-28T09:46:08;28202.66;;;-147.39;24.24
3524;BME280;1776;53.330;11.498;2023-02-28T09:48:40;28306.47;;;-147.39;25.59
3524;BME280;1776;53.330;11.498;2023-02-28T09:51:26;27653.16;;;-147.39;25.00
3524;BME280;1776;53.330;11.498;2023-02-28T09:53:53;28035.75;;;-147.39;25.37
3524;BME280;1776;53.330;11.498;2023-02-28T09:56:25;27976.75;;;-147.39;25.48
3524;BME280;1776;53.330;11.498;2023-02-28T09:59:14;27811.88;;;-147.39;24.78
3524;BME280;1776;53.330;11.498;2023-02-28T10:01:56;27608.38;;;-147.39;25.54
3524;BME280;1776;53.330;11.498;2023-02-28T10:04:36;27571.75;;;-147.39;26.60
3524;BME280;1776;53.330;11.498;2023-02-28T10:10:04;27301.09;;;-147.39;27.22
3524;BME280;1776;53.330;11.498;2023-02-28T10:12:36;26818.84;;;-147.39;27.85
3524;BME280;1776;53.330;11.498;2023-02-28T10:15:03;26135.25;;;-147.39;30.79
3524;BME280;1776;53.330;11.498;2023-02-28T10:17:38;26033.53;;;-147.39;32.97
3524;BME280;1776;53.330;11.498;2023-02-28T10:20:07;26289.84;;;-147.39;34.71
3524;BME280;1776;53.330;11.498;2023-02-28T10:22:44;26308.16;;;-147.39;34.86
3524;BME280;1776;53.330;11.498;2023-02-28T10:25:20;26234.94;;;-147.39;34.86
3524;BME280;1776;53.330;11.498;2023-02-28T10:27:46;26214.59;;;-147.39;35.42
3524;BME280;1776;53.330;11.498;2023-02-28T10:30:12;25974.53;;;-147.39;34.14
3524;BME280;1776;53.330;11.498;2023-02-28T10:32:39;26114.91;;;-147.39;37.19
3524;BME280;1776;53.330;11.498;2023-02-28T10:35:23;25842.31;;;-147.39;34.55
3524;BME280;1776;53.330;11.498;2023-02-28T10:37:55;25590.06;;;-147.39;34.66
3524;BME280;1776;53.330;11.498;2023-02-28T10:43:00;25642.97;;;-147.39;38.53
3524;BME280;1776;53.330;11.498;2023-02-28T10:45:28;25642.97;;;-147.39;38.12
3524;BME280;1776;53.330;11.498;2023-02-28T10:48:01;25663.31;;;-147.39;37.60
3524;BME280;1776;53.330;11.498;2023-02-28T10:53:07;25516.84;;;-147.39;38.85
3524;BME280;1776;53.330;11.498;2023-02-28T10:55:33;25476.16;;;-147.39;38.42
3524;BME280;1776;53.330;11.498;2023-02-28T10:57:59;25557.53;;;-147.39;38.35
3524;BME280;1776;53.330;11.498;2023-02-28T11:00:25;25535.16;;;-147.39;39.44
3524;BME280;1776;53.330;11.498;2023-02-28T11:02:56;25525.00;;;-147.39;39.64
3524;BME280;1776;53.330;11.498;2023-02-28T11:05:30;25504.66;;;-147.39;39.27
3524;BME280;1776;53.330;11.498;2023-02-28T11:08:04;25474.13;;;-147.39;38.83
3524;BME280;1776;53.330;11.498;2023-02-28T11:10:31;25425.31;;;-147.39;39.75
3524;BME280;1776;53.330;11.498;2023-02-28T11:13:00;25463.97;;;-147.39;40.46
3524;BME280;1776;53.330;11.498;2023-02-28T11:15:31;25537.19;;;-147.39;40.16
3524;BME280;1776;53.330;11.498;2023-02-28T11:18:00;25531.09;;;-147.39;38.94
3524;BME280;1776;53.330;11.498;2023-02-28T11:20:29;25522.97;;;-147.39;38.83
3524;BME280;1776;53.330;11.498;2023-02-28T11:22:56;25527.03;;;-147.39;38.29
3524;BME280;1776;53.330;11.498;2023-02-28T11:25:30;25500.59;;;-147.39;37.98
3524;BME280;1776;53.330;11.498;2023-02-28T11:28:01;24829.41;;;-147.39;36.17
3524;BME280;1776;53.330;11.498;2023-02-28T11:30:30;25498.53;;;-147.39;38.17
3524;BME280;1776;53.330;11.498;2023-02-28T11:32:56;25516.84;;;-147.39;37.99
3524;BME280;1776;53.330;11.498;2023-02-28T11:35:29;25586.00;;;-147.39;38.87
3524;BME280;1776;53.330;11.498;2023-02-28T11:37:57;25592.13;;;-147.39;37.80
3524;BME280;1776;53.330;11.498;2023-02-28T11:43:06;25537.19;;;-147.39;37.29
3524;BME280;1776;53.330;11.498;2023-02-28T11:48:43;25624.66;;;-147.39;36.39
3524;BME280;1776;53.330;11.498;2023-02-28T11:51:20;25638.91;;;-147.39;37.31
3524;BME280;1776;53.330;11.498;2023-02-28T11:56:55;25610.41;;;-147.39;35.97
3524;BME280;1776;53.330;11.498;2023-02-28T12:02:25;25622.63;;;-147.39;36.62
3524;BME280;1776;53.330;11.498;2023-02-28T12:05:02;25663.31;;;-147.39;37.12
3524;BME280;1776;53.330;11.498;2023-02-28T12:07:56;25720.25;;;-147.39;35.30
3524;BME280;1776;53.330;11.498;2023-02-28T12:10:29;25693.81;;;-147.39;35.98
3524;BME280;1776;53.330;11.498;2023-02-28T12:18:17;25679.56;;;-147.39;36.01
3524;BME280;1776;53.330;11.498;2023-02-28T12:21:29;25728.41;;;-147.39;35.53
3524;BME280;1776;53.330;11.498;2023-02-28T12:24:26;25771.13;;;-147.39;33.76
3524;BME280;1776;53.330;11.498;2023-02-28T12:26:57;25789.41;;;-147.39;35.29
3524;BME280;1776;53.330;11.498;2023-02-28T12:29:28;25746.69;;;-147.39;34.76
3524;BME280;1776;53.330;11.498;2023-02-28T12:32:01;25832.13;;;-147.39;34.69
3524;BME280;1776;53.330;11.498;2023-02-28T12:34:33;25803.66;;;-147.39;35.06
3524;BME280;1776;53.330;11.498;2023-02-28T12:37:02;25895.19;;;-147.39;35.38
3524;BME280;1776;53.330;11.498;2023-02-28T12:39:35;25889.09;;;-147.39;34.59
3524;BME280;1776;53.330;11.498;2023-02-28T12:42:12;25824.00;;;-147.39;34.90
3524;BME280;1776;53.330;11.498;2023-02-28T12:47:44;25793.50;;;-147.39;35.05
3524;BME280;1776;53.330;11.498;2023-02-28T12:50:11;25750.78;;;-147.39;34.55
3524;BME280;1776;53.330;11.498;2023-02-28T12:53:03;25746.69;;;-147.39;34.92
3524;BME280;1776;53.330;11.498;2023-02-28T12:55:40;25773.16;;;-147.39;35.29
3524;BME280;1776;53.330;11.498;2023-02-28T12:58:20;25760.94;;;-147.39;34.40
3524;BME280;1776;53.330;11.498;2023-02-28T13:06:59;25502.63;;;-147.39;35.55
3524;BME280;1776;53.330;11.498;2023-02-28T13:09:31;25586.00;;;-147.39;36.23
3524;BME280;1776;53.330;11.498;2023-02-28T13:11:57;25600.25;;;-147.39;36.60
3524;BME280;1776;53.330;11.498;2023-02-28T13:14:29;25581.94;;;-147.39;35.32
3524;BME280;1776;53.330;11.498;2023-02-28T13:19:37;25598.22;;;-147.39;36.57
3524;BME280;1776;53.330;11.498;2023-02-28T13:22:04;25634.81;;;-147.39;36.27
3524;BME280;1776;53.330;11.498;2023-02-28T13:29:36;25655.16;;;-147.39;34.64
3524;BME280;1776;53.330;11.498;2023-02-28T13:39:49;25539.22;;;-147.39;35.43
3524;BME280;1776;53.330;11.498;2023-02-28T13:47:30;25567.69;;;-147.39;36.23
3524;BME280;1776;53.330;11.498;2023-02-28T13:50:21;25651.09;;;-147.39;36.36
3524;BME280;1776;53.330;11.498;2023-02-28T13:55:34;25626.69;;;-147.39;35.53
3524;BME280;1776;53.330;11.498;2023-02-28T13:58:32;25701.94;;;-147.39;34.07
3524;BME280;1776;53.330;11.498;2023-02-28T14:01:31;25667.38;;;-147.39;34.05
3524;BME280;1776;53.330;11.498;2023-02-28T14:04:39;25695.84;;;-147.39;33.63
3524;BME280;1776;53.330;11.498;2023-02-28T14:07:17;25714.16;;;-147.39;34.87
3524;BME280;1776;53.330;11.498;2023-02-28T14:09:48;25691.78;;;-147.39;34.42
3524;BME280;1776;53.330;11.498;2023-02-28T14:15:39;25482.28;;;-147.39;34.52
3524;BME280;1776;53.330;11.498;2023-02-28T14:18:21;25559.56;;;-147.39;35.49
3524;BME280;1776;53.330;11.498;2023-02-28T14:20:48;25500.59;;;-147.39;35.54
3524;BME280;1776;53.330;11.498;2023-02-28T14:26:31;25563.63;;;-147.39;36.49
3524;BME280;1776;53.330;11.498;2023-02-28T14:29:23;25569.75;;;-147.39;36.12
3524;BME280;1776;53.330;11.498;2023-02-28T14:32:00;25645.00;;;-147.39;35.92
3524;BME280;1776;53.330;11.498;2023-02-28T14:34:49;25710.09;;;-147.39;35.04
3524;BME280;1776;53.330;11.498;2023-02-28T14:37:20;25724.31;;;-147.39;35.69
3524;BME280;1776;53.330;11.498;2023-02-28T14:39:50;25742.63;;;-147.39;35.30